sensor_id;sensor_type;location;lat;lon;timestamp;P1;P2;P0
73305;PMS5003;61530;51.158;0.880;2022-09-13T00:00:37;10;9;7
73305;PMS5003;61530;51.158;0.880;2022-09-13T00:01:36;6;6;5
73305;PMS5003;61530;51.158;0.880;2022-09-13T00:02:36;8;8;7
73305;PMS5003;61530;51.158;0.880;2022-09-13T00:03:36;8;8;7
73305;PMS5003;61530;51.158;0.880;2022-09-13T00:04:36;6;6;5
73305;PMS5003;61530;51.158;0.880;2022-09-13T00:05:37;7;7;6
73305;PMS5003;61530;51.158;0.880;2022-09-13T00:06:36;6;5;3
73305;PMS5003;61530;51.158;0.880;2022-09-13T00:07:42;8;6;4
73305;PMS5003;61530;51.158;0.880;2022-09-13T00:08:42;5;5;3
73305;PMS5003;61530;51.158;0.880;2022-09-13T00:09:48;6;6;3
73305;PMS5003;61530;51.158;0.880;2022-09-13T00:10:54;9;7;5
73305;PMS5003;61530;51.158;0.880;2022-09-13T00:11:54;7;6;4
73305;PMS5003;61530;51.158;0.880;2022-09-13T00:12:54;7;7;5
73305;PMS5003;61530;51.158;0.880;2022-09-13T00:14:01;6;6;4
73305;PMS5003;61530;51.158;0.880;2022-09-13T00:15:06;7;6;5
73305;PMS5003;61530;51.158;0.880;2022-09-13T00:16:14;9;7;5
73305;PMS5003;61530;51.158;0.880;2022-09-13T00:17:18;8;7;5
73305;PMS5003;61530;51.158;0.880;2022-09-13T00:18:18;8;8;6
73305;PMS5003;61530;51.158;0.880;2022-09-13T00:19:24;6;6;5
73305;PMS5003;61530;51.158;0.880;2022-09-13T00:20:30;8;5;3
73305;PMS5003;61530;51.158;0.880;2022-09-13T00:21:30;8;6;4
73305;PMS5003;61530;51.158;0.880;2022-09-13T00:22:36;8;8;4
73305;PMS5003;61530;51.158;0.880;2022-09-13T00:23:43;4;4;3
73305;PMS5003;61530;51.158;0.880;2022-09-13T00:24:48;7;7;3
73305;PMS5003;61530;51.158;0.880;2022-09-13T00:26:01;6;6;5
73305;PMS5003;61530;51.158;0.880;2022-09-13T00:26:54;7;7;6
73305;PMS5003;61530;51.158;0.880;2022-09-13T00:28:00;8;7;4
73305;PMS5003;61530;51.158;0.880;2022-09-13T00:29:06;7;6;4
73305;PMS5003;61530;51.158;0.880;2022-09-13T00:30:12;8;7;5
73305;PMS5003;61530;51.158;0.880;2022-09-13T00:31:12;7;4;4
73305;PMS5003;61530;51.158;0.880;2022-09-13T00:32:12;9;6;4
73305;PMS5003;61530;51.158;0.880;2022-09-13T00:33:18;7;7;5
73305;PMS5003;61530;51.158;0.880;2022-09-13T00:34:20;6;6;4
73305;PMS5003;61530;51.158;0.880;2022-09-13T00:35:20;6;6;5
73305;PMS5003;61530;51.158;0.880;2022-09-13T00:36:26;7;7;5
73305;PMS5003;61530;51.158;0.880;2022-09-13T00:37:26;7;7;5
73305;PMS5003;61530;51.158;0.880;2022-09-13T00:38:26;7;6;4
73305;PMS5003;61530;51.158;0.880;2022-09-13T00:39:32;7;7;4
73305;PMS5003;61530;51.158;0.880;2022-09-13T00:40:35;9;9;7
73305;PMS5003;61530;51.158;0.880;2022-09-13T00:41:32;6;6;5
73305;PMS5003;61530;51.158;0.880;2022-09-13T00:42:32;8;8;6
73305;PMS5003;61530;51.158;0.880;2022-09-13T00:43:40;9;9;6
73305;PMS5003;61530;51.158;0.880;2022-09-13T00:44:53;9;7;5
73305;PMS5003;61530;51.158;0.880;2022-09-13T00:45:45;5;5;3
73305;PMS5003;61530;51.158;0.880;2022-09-13T00:46:50;5;5;4
73305;PMS5003;61530;51.158;0.880;2022-09-13T00:47:51;8;6;5
73305;PMS5003;61530;51.158;0.880;2022-09-13T00:48:58;6;6;4
73305;PMS5003;61530;51.158;0.880;2022-09-13T00:50:04;13;10;6
73305;PMS5003;61530;51.158;0.880;2022-09-13T00:51:02;6;6;4
73305;PMS5003;61530;51.158;0.880;2022-09-13T00:52:09;8;8;5
73305;PMS5003;61530;51.158;0.880;2022-09-13T00:53:08;7;7;5
73305;PMS5003;61530;51.158;0.880;2022-09-13T00:54:08;8;8;5
73305;PMS5003;61530;51.158;0.880;2022-09-13T00:55:11;8;8;4
73305;PMS5003;61530;51.158;0.880;2022-09-13T00:56:10;8;8;5
73305;PMS5003;61530;51.158;0.880;2022-09-13T00:57:14;8;7;5
73305;PMS5003;61530;51.158;0.880;2022-09-13T00:58:15;7;7;5
73305;PMS5003;61530;51.158;0.880;2022-09-13T00:59:22;9;8;5
73305;PMS5003;61530;51.158;0.880;2022-09-13T01:00:27;7;6;3
73305;PMS5003;61530;51.158;0.880;2022-09-13T01:01:28;8;8;5
73305;PMS5003;61530;51.158;0.880;2022-09-13T01:02:27;7;7;6
73305;PMS5003;61530;51.158;0.880;2022-09-13T01:03:33;11;8;5
73305;PMS5003;61530;51.158;0.880;2022-09-13T01:04:33;10;9;7
73305;PMS5003;61530;51.158;0.880;2022-09-13T01:05:34;9;8;5
73305;PMS5003;61530;51.158;0.880;2022-09-13T01:06:39;8;8;5
73305;PMS5003;61530;51.158;0.880;2022-09-13T01:07:45;10;8;6
73305;PMS5003;61530;51.158;0.880;2022-09-13T01:08:46;5;5;4
73305;PMS5003;61530;51.158;0.880;2022-09-13T01:09:51;6;6;5
73305;PMS5003;61530;51.158;0.880;2022-09-13T01:10:57;8;6;5
73305;PMS5003;61530;51.158;0.880;2022-09-13T01:12:04;8;8;6
73305;PMS5003;61530;51.158;0.880;2022-09-13T01:13:10;6;6;4
73305;PMS5003;61530;51.158;0.880;2022-09-13T01:14:09;6;6;5
73305;PMS5003;61530;51.158;0.880;2022-09-13T01:15:09;7;7;6
73305;PMS5003;61530;51.158;0.880;2022-09-13T01:16:15;6;6;5
73305;PMS5003;61530;51.158;0.880;2022-09-13T01:17:15;7;7;5
73305;PMS5003;61530;51.158;0.880;2022-09-13T01:18:15;8;8;5
73305;PMS5003;61530;51.158;0.880;2022-09-13T01:19:21;10;9;6
73305;PMS5003;61530;51.158;0.880;2022-09-13T01:20:21;7;7;6
73305;PMS5003;61530;51.158;0.880;2022-09-13T01:22:00;8;8;5
73305;PMS5003;61530;51.158;0.880;2022-09-13T01:23:28;8;8;5
73305;PMS5003;61530;51.158;0.880;2022-09-13T01:23:56;6;6;5
73305;PMS5003;61530;51.158;0.880;2022-09-13T01:24:56;7;7;5
73305;PMS5003;61530;51.158;0.880;2022-09-13T01:26:00;6;6;5
73305;PMS5003;61530;51.158;0.880;2022-09-13T01:26:59;9;7;5
73305;PMS5003;61530;51.158;0.880;2022-09-13T01:28:02;9;9;7
73305;PMS5003;61530;51.158;0.880;2022-09-13T01:32:11;9;7;5
73305;PMS5003;61530;51.158;0.880;2022-09-13T01:33:18;9;7;5
73305;PMS5003;61530;51.158;0.880;2022-09-13T01:34:25;6;6;5
73305;PMS5003;61530;51.158;0.880;2022-09-13T01:35:21;10;10;6
73305;PMS5003;61530;51.158;0.880;2022-09-13T01:36:32;10;9;6
73305;PMS5003;61530;51.158;0.880;2022-09-13T01:37:34;7;7;5
73305;PMS5003;61530;51.158;0.880;2022-09-13T01:38:37;6;6;4
73305;PMS5003;61530;51.158;0.880;2022-09-13T01:39:36;10;10;5
73305;PMS5003;61530;51.158;0.880;2022-09-13T01:40:42;9;9;6
73305;PMS5003;61530;51.158;0.880;2022-09-13T01:41:47;10;8;5
73305;PMS5003;61530;51.158;0.880;2022-09-13T01:42:55;9;9;5
73305;PMS5003;61530;51.158;0.880;2022-09-13T01:43:57;11;9;7
73305;PMS5003;61530;51.158;0.880;2022-09-13T01:45:01;10;9;5
73305;PMS5003;61530;51.158;0.880;2022-09-13T01:46:03;9;8;5
73305;PMS5003;61530;51.158;0.880;2022-09-13T01:47:04;8;8;6
73305;PMS5003;61530;51.158;0.880;2022-09-13T01:48:09;9;8;6
73305;PMS5003;61530;51.158;0.880;2022-09-13T01:49:15;11;10;6
73305;PMS5003;61530;51.158;0.880;2022-09-13T01:50:16;10;7;5
73305;PMS5003;61530;51.158;0.880;2022-09-13T01:51:22;6;6;5
73305;PMS5003;61530;51.158;0.880;2022-09-13T01:52:22;8;8;5
73305;PMS5003;61530;51.158;0.880;2022-09-13T01:53:23;8;8;6
73305;PMS5003;61530;51.158;0.880;2022-09-13T01:54:28;11;9;5
73305;PMS5003;61530;51.158;0.880;2022-09-13T01:55:29;8;8;6
73305;PMS5003;61530;51.158;0.880;2022-09-13T01:56:27;9;9;7
73305;PMS5003;61530;51.158;0.880;2022-09-13T01:57:27;10;8;6
73305;PMS5003;61530;51.158;0.880;2022-09-13T01:58:27;6;6;4
73305;PMS5003;61530;51.158;0.880;2022-09-13T01:59:34;7;7;5
73305;PMS5003;61530;51.158;0.880;2022-09-13T02:00:35;11;10;4
73305;PMS5003;61530;51.158;0.880;2022-09-13T02:01:38;7;7;5
73305;PMS5003;61530;51.158;0.880;2022-09-13T02:02:44;8;8;5
73305;PMS5003;61530;51.158;0.880;2022-09-13T02:03:46;9;9;5
73305;PMS5003;61530;51.158;0.880;2022-09-13T02:04:51;8;8;6
73305;PMS5003;61530;51.158;0.880;2022-09-13T02:05:51;12;9;6
73305;PMS5003;61530;51.158;0.880;2022-09-13T02:06:51;9;9;6
73305;PMS5003;61530;51.158;0.880;2022-09-13T02:07:52;7;7;5
73305;PMS5003;61530;51.158;0.880;2022-09-13T02:08:51;8;8;6
73305;PMS5003;61530;51.158;0.880;2022-09-13T02:09:57;9;7;6
73305;PMS5003;61530;51.158;0.880;2022-09-13T02:10:57;10;8;6
73305;PMS5003;61530;51.158;0.880;2022-09-13T02:11:58;11;8;6
73305;PMS5003;61530;51.158;0.880;2022-09-13T02:12:56;11;8;6
73305;PMS5003;61530;51.158;0.880;2022-09-13T02:14:03;6;6;5
73305;PMS5003;61530;51.158;0.880;2022-09-13T02:15:03;8;8;6
73305;PMS5003;61530;51.158;0.880;2022-09-13T02:16:05;9;9;6
73305;PMS5003;61530;51.158;0.880;2022-09-13T02:17:04;12;10;7
73305;PMS5003;61530;51.158;0.880;2022-09-13T02:18:04;9;9;6
73305;PMS5003;61530;51.158;0.880;2022-09-13T02:19:04;9;9;6
73305;PMS5003;61530;51.158;0.880;2022-09-13T02:20:09;7;7;5
73305;PMS5003;61530;51.158;0.880;2022-09-13T02:21:09;10;10;7
73305;PMS5003;61530;51.158;0.880;2022-09-13T02:22:09;8;8;6
73305;PMS5003;61530;51.158;0.880;2022-09-13T02:23:15;10;10;6
73305;PMS5003;61530;51.158;0.880;2022-09-13T02:24:22;7;7;5
73305;PMS5003;61530;51.158;0.880;2022-09-13T02:25:21;12;10;7
73305;PMS5003;61530;51.158;0.880;2022-09-13T02:26:27;10;10;7
73305;PMS5003;61530;51.158;0.880;2022-09-13T02:27:34;11;10;6
73305;PMS5003;61530;51.158;0.880;2022-09-13T02:28:34;8;8;6
73305;PMS5003;61530;51.158;0.880;2022-09-13T02:29:39;9;8;6
73305;PMS5003;61530;51.158;0.880;2022-09-13T02:30:46;9;7;5
73305;PMS5003;61530;51.158;0.880;2022-09-13T02:31:46;10;10;7
73305;PMS5003;61530;51.158;0.880;2022-09-13T02:32:47;11;9;7
73305;PMS5003;61530;51.158;0.880;2022-09-13T02:33:47;9;9;6
73305;PMS5003;61530;51.158;0.880;2022-09-13T02:34:48;10;10;7
73305;PMS5003;61530;51.158;0.880;2022-09-13T02:35:53;10;9;6
73305;PMS5003;61530;51.158;0.880;2022-09-13T02:36:58;7;5;4
73305;PMS5003;61530;51.158;0.880;2022-09-13T02:38:04;10;10;5
73305;PMS5003;61530;51.158;0.880;2022-09-13T02:39:05;10;9;6
73305;PMS5003;61530;51.158;0.880;2022-09-13T02:40:06;10;10;7
73305;PMS5003;61530;51.158;0.880;2022-09-13T02:41:12;10;9;6
73305;PMS5003;61530;51.158;0.880;2022-09-13T02:42:12;10;10;7
73305;PMS5003;61530;51.158;0.880;2022-09-13T02:43:11;10;10;8
73305;PMS5003;61530;51.158;0.880;2022-09-13T02:44:11;9;9;7
73305;PMS5003;61530;51.158;0.880;2022-09-13T02:45:11;10;10;7
73305;PMS5003;61530;51.158;0.880;2022-09-13T02:46:13;10;10;7
73305;PMS5003;61530;51.158;0.880;2022-09-13T02:47:21;13;13;8
73305;PMS5003;61530;51.158;0.880;2022-09-13T02:48:24;13;13;10
73305;PMS5003;61530;51.158;0.880;2022-09-13T02:49:29;12;11;9
73305;PMS5003;61530;51.158;0.880;2022-09-13T02:50:36;19;16;10
73305;PMS5003;61530;51.158;0.880;2022-09-13T02:51:37;12;12;8
73305;PMS5003;61530;51.158;0.880;2022-09-13T02:52:42;13;12;8
73305;PMS5003;61530;51.158;0.880;2022-09-13T02:53:41;13;13;8
73305;PMS5003;61530;51.158;0.880;2022-09-13T02:54:41;9;9;8
73305;PMS5003;61530;51.158;0.880;2022-09-13T02:55:41;12;12;8
73305;PMS5003;61530;51.158;0.880;2022-09-13T02:56:43;13;13;9
73305;PMS5003;61530;51.158;0.880;2022-09-13T02:57:50;13;11;8
73305;PMS5003;61530;51.158;0.880;2022-09-13T02:58:53;12;12;9
73305;PMS5003;61530;51.158;0.880;2022-09-13T02:59:53;13;12;9
73305;PMS5003;61530;51.158;0.880;2022-09-13T03:00:58;15;15;9
73305;PMS5003;61530;51.158;0.880;2022-09-13T03:02:02;10;10;7
73305;PMS5003;61530;51.158;0.880;2022-09-13T03:03:00;13;12;7
73305;PMS5003;61530;51.158;0.880;2022-09-13T03:04:04;11;11;9
73305;PMS5003;61530;51.158;0.880;2022-09-13T03:05:04;12;12;8
73305;PMS5003;61530;51.158;0.880;2022-09-13T03:06:04;12;11;9
73305;PMS5003;61530;51.158;0.880;2022-09-13T03:07:05;11;11;9
73305;PMS5003;61530;51.158;0.880;2022-09-13T03:08:11;13;13;7
73305;PMS5003;61530;51.158;0.880;2022-09-13T03:09:16;13;13;8
73305;PMS5003;61530;51.158;0.880;2022-09-13T03:10:16;13;13;9
73305;PMS5003;61530;51.158;0.880;2022-09-13T03:11:24;12;12;9
73305;PMS5003;61530;51.158;0.880;2022-09-13T03:15:13;10;10;8
73305;PMS5003;61530;51.158;0.880;2022-09-13T03:16:18;14;14;9
73305;PMS5003;61530;51.158;0.880;2022-09-13T03:17:24;11;10;8
73305;PMS5003;61530;51.158;0.880;2022-09-13T03:18:24;14;12;8
73305;PMS5003;61530;51.158;0.880;2022-09-13T03:19:22;14;12;8
73305;PMS5003;61530;51.158;0.880;2022-09-13T03:20:28;16;16;10
73305;PMS5003;61530;51.158;0.880;2022-09-13T03:21:36;11;11;9
73305;PMS5003;61530;51.158;0.880;2022-09-13T03:22:36;13;13;9
73305;PMS5003;61530;51.158;0.880;2022-09-13T03:23:40;11;11;9
73305;PMS5003;61530;51.158;0.880;2022-09-13T03:24:39;13;13;9
73305;PMS5003;61530;51.158;0.880;2022-09-13T03:25:41;10;10;7
73305;PMS5003;61530;51.158;0.880;2022-09-13T03:26:41;13;13;9
73305;PMS5003;61530;51.158;0.880;2022-09-13T03:27:45;16;14;11
73305;PMS5003;61530;51.158;0.880;2022-09-13T03:28:52;13;13;9
73305;PMS5003;61530;51.158;0.880;2022-09-13T03:29:57;14;14;8
73305;PMS5003;61530;51.158;0.880;2022-09-13T03:31:03;12;12;9
73305;PMS5003;61530;51.158;0.880;2022-09-13T03:32:04;15;13;10
73305;PMS5003;61530;51.158;0.880;2022-09-13T03:33:09;16;12;8
73305;PMS5003;61530;51.158;0.880;2022-09-13T03:34:14;13;13;8
73305;PMS5003;61530;51.158;0.880;2022-09-13T03:35:16;12;12;8
73305;PMS5003;61530;51.158;0.880;2022-09-13T03:36:14;15;14;10
73305;PMS5003;61530;51.158;0.880;2022-09-13T03:37:16;11;11;9
73305;PMS5003;61530;51.158;0.880;2022-09-13T03:38:14;15;13;9
73305;PMS5003;61530;51.158;0.880;2022-09-13T03:39:20;15;12;8
73305;PMS5003;61530;51.158;0.880;2022-09-13T03:40:20;13;10;8
73305;PMS5003;61530;51.158;0.880;2022-09-13T03:41:20;12;12;9
73305;PMS5003;61530;51.158;0.880;2022-09-13T03:42:21;11;11;9
73305;PMS5003;61530;51.158;0.880;2022-09-13T03:43:21;17;14;10
73305;PMS5003;61530;51.158;0.880;2022-09-13T03:44:20;16;16;10
73305;PMS5003;61530;51.158;0.880;2022-09-13T03:45:26;13;13;11
73305;PMS5003;61530;51.158;0.880;2022-09-13T03:46:26;15;15;10
73305;PMS5003;61530;51.158;0.880;2022-09-13T03:47:32;14;13;9
73305;PMS5003;61530;51.158;0.880;2022-09-13T03:48:37;14;13;9
73305;PMS5003;61530;51.158;0.880;2022-09-13T03:49:37;13;13;8
73305;PMS5003;61530;51.158;0.880;2022-09-13T03:50:37;14;14;10
73305;PMS5003;61530;51.158;0.880;2022-09-13T03:51:44;15;15;10
73305;PMS5003;61530;51.158;0.880;2022-09-13T03:52:44;13;11;9
73305;PMS5003;61530;51.158;0.880;2022-09-13T03:53:51;19;16;12
73305;PMS5003;61530;51.158;0.880;2022-09-13T03:54:49;13;13;9
73305;PMS5003;61530;51.158;0.880;2022-09-13T03:55:55;12;12;9
73305;PMS5003;61530;51.158;0.880;2022-09-13T03:57:12;17;14;11
73305;PMS5003;61530;51.158;0.880;2022-09-13T03:57:55;17;13;9
73305;PMS5003;61530;51.158;0.880;2022-09-13T03:58:55;12;11;8
73305;PMS5003;61530;51.158;0.880;2022-09-13T03:59:56;13;13;10
73305;PMS5003;61530;51.158;0.880;2022-09-13T04:00:55;14;13;9
73305;PMS5003;61530;51.158;0.880;2022-09-13T04:02:01;13;13;8
73305;PMS5003;61530;51.158;0.880;2022-09-13T04:03:07;14;14;10
73305;PMS5003;61530;51.158;0.880;2022-09-13T04:04:07;12;12;8
73305;PMS5003;61530;51.158;0.880;2022-09-13T04:05:13;16;14;10
73305;PMS5003;61530;51.158;0.880;2022-09-13T04:06:13;17;17;11
73305;PMS5003;61530;51.158;0.880;2022-09-13T04:07:14;17;14;11
73305;PMS5003;61530;51.158;0.880;2022-09-13T04:08:19;14;14;10
73305;PMS5003;61530;51.158;0.880;2022-09-13T04:09:25;16;16;12
73305;PMS5003;61530;51.158;0.880;2022-09-13T04:10:25;15;15;12
73305;PMS5003;61530;51.158;0.880;2022-09-13T04:11:31;14;14;9
73305;PMS5003;61530;51.158;0.880;2022-09-13T04:12:37;13;13;10
73305;PMS5003;61530;51.158;0.880;2022-09-13T04:13:37;17;16;10
73305;PMS5003;61530;51.158;0.880;2022-09-13T04:14:43;18;17;12
73305;PMS5003;61530;51.158;0.880;2022-09-13T04:15:49;16;15;10
73305;PMS5003;61530;51.158;0.880;2022-09-13T04:16:49;16;15;10
73305;PMS5003;61530;51.158;0.880;2022-09-13T04:17:55;16;14;10
73305;PMS5003;61530;51.158;0.880;2022-09-13T04:19:01;17;15;10
73305;PMS5003;61530;51.158;0.880;2022-09-13T04:20:01;16;16;11
73305;PMS5003;61530;51.158;0.880;2022-09-13T04:21:01;19;18;13
73305;PMS5003;61530;51.158;0.880;2022-09-13T04:22:07;15;15;10
73305;PMS5003;61530;51.158;0.880;2022-09-13T04:23:13;12;12;8
73305;PMS5003;61530;51.158;0.880;2022-09-13T04:24:19;17;16;11
73305;PMS5003;61530;51.158;0.880;2022-09-13T04:25:25;14;14;9
73305;PMS5003;61530;51.158;0.880;2022-09-13T04:26:25;18;16;11
73305;PMS5003;61530;51.158;0.880;2022-09-13T04:27:32;17;17;12
73305;PMS5003;61530;51.158;0.880;2022-09-13T04:28:37;15;14;9
73305;PMS5003;61530;51.158;0.880;2022-09-13T04:29:37;17;15;12
73305;PMS5003;61530;51.158;0.880;2022-09-13T04:30:37;13;12;9
73305;PMS5003;61530;51.158;0.880;2022-09-13T04:31:43;21;16;11
73305;PMS5003;61530;51.158;0.880;2022-09-13T04:32:43;16;15;10
73305;PMS5003;61530;51.158;0.880;2022-09-13T04:33:43;13;12;8
73305;PMS5003;61530;51.158;0.880;2022-09-13T04:34:49;18;15;10
73305;PMS5003;61530;51.158;0.880;2022-09-13T04:35:52;15;15;11
73305;PMS5003;61530;51.158;0.880;2022-09-13T04:36:50;14;13;11
73305;PMS5003;61530;51.158;0.880;2022-09-13T04:37:55;18;15;10
73305;PMS5003;61530;51.158;0.880;2022-09-13T04:39:02;14;14;10
73305;PMS5003;61530;51.158;0.880;2022-09-13T04:40:01;16;16;10
73305;PMS5003;61530;51.158;0.880;2022-09-13T04:41:02;14;14;10
73305;PMS5003;61530;51.158;0.880;2022-09-13T04:42:07;15;15;12
73305;PMS5003;61530;51.158;0.880;2022-09-13T04:43:07;16;16;9
73305;PMS5003;61530;51.158;0.880;2022-09-13T04:44:07;14;13;10
73305;PMS5003;61530;51.158;0.880;2022-09-13T04:45:07;14;14;10
73305;PMS5003;61530;51.158;0.880;2022-09-13T04:46:13;14;14;10
73305;PMS5003;61530;51.158;0.880;2022-09-13T04:47:13;14;13;10
73305;PMS5003;61530;51.158;0.880;2022-09-13T04:48:13;12;12;8
73305;PMS5003;61530;51.158;0.880;2022-09-13T04:49:14;14;14;10
73305;PMS5003;61530;51.158;0.880;2022-09-13T04:50:13;15;15;9
73305;PMS5003;61530;51.158;0.880;2022-09-13T04:51:13;16;16;10
73305;PMS5003;61530;51.158;0.880;2022-09-13T04:52:13;15;14;10
73305;PMS5003;61530;51.158;0.880;2022-09-13T04:53:19;16;14;10
73305;PMS5003;61530;51.158;0.880;2022-09-13T04:54:25;15;15;10
73305;PMS5003;61530;51.158;0.880;2022-09-13T04:55:31;15;14;10
73305;PMS5003;61530;51.158;0.880;2022-09-13T04:56:37;14;14;10
73305;PMS5003;61530;51.158;0.880;2022-09-13T04:57:37;15;14;9
73305;PMS5003;61530;51.158;0.880;2022-09-13T04:58:37;12;12;9
73305;PMS5003;61530;51.158;0.880;2022-09-13T04:59:43;17;16;11
73305;PMS5003;61530;51.158;0.880;2022-09-13T05:00:49;16;15;10
73305;PMS5003;61530;51.158;0.880;2022-09-13T05:01:55;13;13;9
73305;PMS5003;61530;51.158;0.880;2022-09-13T05:03:02;18;15;10
73305;PMS5003;61530;51.158;0.880;2022-09-13T05:04:02;17;14;8
73305;PMS5003;61530;51.158;0.880;2022-09-13T05:05:07;14;13;8
73305;PMS5003;61530;51.158;0.880;2022-09-13T05:06:14;12;12;9
73305;PMS5003;61530;51.158;0.880;2022-09-13T05:07:13;20;16;9
73305;PMS5003;61530;51.158;0.880;2022-09-13T05:08:13;13;13;10
73305;PMS5003;61530;51.158;0.880;2022-09-13T05:09:19;15;14;10
73305;PMS5003;61530;51.158;0.880;2022-09-13T05:10:25;15;15;10
73305;PMS5003;61530;51.158;0.880;2022-09-13T05:11:31;11;10;7
73305;PMS5003;61530;51.158;0.880;2022-09-13T05:12:37;16;14;8
73305;PMS5003;61530;51.158;0.880;2022-09-13T05:13:43;12;12;9
73305;PMS5003;61530;51.158;0.880;2022-09-13T05:14:43;15;13;10
73305;PMS5003;61530;51.158;0.880;2022-09-13T05:15:49;13;13;9
73305;PMS5003;61530;51.158;0.880;2022-09-13T05:16:49;12;11;6
73305;PMS5003;61530;51.158;0.880;2022-09-13T05:17:49;14;14;10
73305;PMS5003;61530;51.158;0.880;2022-09-13T05:18:55;14;14;9
73305;PMS5003;61530;51.158;0.880;2022-09-13T05:20:02;18;16;10
73305;PMS5003;61530;51.158;0.880;2022-09-13T05:21:03;14;14;11
73305;PMS5003;61530;51.158;0.880;2022-09-13T05:22:07;15;14;10
73305;PMS5003;61530;51.158;0.880;2022-09-13T05:23:13;19;17;11
73305;PMS5003;61530;51.158;0.880;2022-09-13T05:24:13;15;15;10
73305;PMS5003;61530;51.158;0.880;2022-09-13T05:25:19;19;17;11
73305;PMS5003;61530;51.158;0.880;2022-09-13T05:26:26;13;13;9
73305;PMS5003;61530;51.158;0.880;2022-09-13T05:27:25;16;14;9
73305;PMS5003;61530;51.158;0.880;2022-09-13T05:28:32;15;14;10
73305;PMS5003;61530;51.158;0.880;2022-09-13T05:29:31;19;16;11
73305;PMS5003;61530;51.158;0.880;2022-09-13T05:30:31;15;15;9
73305;PMS5003;61530;51.158;0.880;2022-09-13T05:31:38;15;15;11
73305;PMS5003;61530;51.158;0.880;2022-09-13T05:32:39;14;14;9
73305;PMS5003;61530;51.158;0.880;2022-09-13T05:33:39;17;14;11
73305;PMS5003;61530;51.158;0.880;2022-09-13T05:34:45;17;15;11
73305;PMS5003;61530;51.158;0.880;2022-09-13T05:35:45;14;13;11
73305;PMS5003;61530;51.158;0.880;2022-09-13T05:36:51;18;13;9
73305;PMS5003;61530;51.158;0.880;2022-09-13T05:37:57;21;19;11
73305;PMS5003;61530;51.158;0.880;2022-09-13T05:38:58;18;16;11
73305;PMS5003;61530;51.158;0.880;2022-09-13T05:40:04;14;13;9
73305;PMS5003;61530;51.158;0.880;2022-09-13T05:41:04;20;19;11
73305;PMS5003;61530;51.158;0.880;2022-09-13T05:42:10;20;17;12
73305;PMS5003;61530;51.158;0.880;2022-09-13T05:43:16;15;15;10
73305;PMS5003;61530;51.158;0.880;2022-09-13T05:44:16;14;14;9
73305;PMS5003;61530;51.158;0.880;2022-09-13T05:45:16;17;16;9
73305;PMS5003;61530;51.158;0.880;2022-09-13T05:46:17;14;14;11
73305;PMS5003;61530;51.158;0.880;2022-09-13T05:47:22;18;16;12
73305;PMS5003;61530;51.158;0.880;2022-09-13T05:48:28;19;19;9
73305;PMS5003;61530;51.158;0.880;2022-09-13T05:49:28;15;14;9
73305;PMS5003;61530;51.158;0.880;2022-09-13T05:50:36;13;13;8
73305;PMS5003;61530;51.158;0.880;2022-09-13T05:51:34;16;14;9
73305;PMS5003;61530;51.158;0.880;2022-09-13T05:52:34;21;21;11
73305;PMS5003;61530;51.158;0.880;2022-09-13T05:53:41;13;13;8
73305;PMS5003;61530;51.158;0.880;2022-09-13T05:54:40;20;20;10
73305;PMS5003;61530;51.158;0.880;2022-09-13T05:55:46;14;11;7
73305;PMS5003;61530;51.158;0.880;2022-09-13T05:56:52;15;13;9
73305;PMS5003;61530;51.158;0.880;2022-09-13T05:57:52;17;15;10
73305;PMS5003;61530;51.158;0.880;2022-09-13T05:58:58;14;13;8
73305;PMS5003;61530;51.158;0.880;2022-09-13T06:00:05;15;13;8
73305;PMS5003;61530;51.158;0.880;2022-09-13T06:01:04;21;19;10
73305;PMS5003;61530;51.158;0.880;2022-09-13T06:02:10;18;17;9
73305;PMS5003;61530;51.158;0.880;2022-09-13T06:03:16;13;13;9
73305;PMS5003;61530;51.158;0.880;2022-09-13T06:04:16;16;13;10
73305;PMS5003;61530;51.158;0.880;2022-09-13T06:05:22;11;11;7
73305;PMS5003;61530;51.158;0.880;2022-09-13T06:06:28;12;12;9
73305;PMS5003;61530;51.158;0.880;2022-09-13T06:07:28;12;11;8
73305;PMS5003;61530;51.158;0.880;2022-09-13T06:08:34;13;13;9
73305;PMS5003;61530;51.158;0.880;2022-09-13T06:09:40;20;19;9
73305;PMS5003;61530;51.158;0.880;2022-09-13T06:10:40;19;19;10
73305;PMS5003;61530;51.158;0.880;2022-09-13T06:11:46;13;13;11
73305;PMS5003;61530;51.158;0.880;2022-09-13T06:12:52;15;13;7
73305;PMS5003;61530;51.158;0.880;2022-09-13T06:13:52;15;14;7
73305;PMS5003;61530;51.158;0.880;2022-09-13T06:14:58;17;16;7
73305;PMS5003;61530;51.158;0.880;2022-09-13T06:16:05;11;11;9
73305;PMS5003;61530;51.158;0.880;2022-09-13T06:17:05;15;13;9
73305;PMS5003;61530;51.158;0.880;2022-09-13T06:18:11;13;13;8
73305;PMS5003;61530;51.158;0.880;2022-09-13T06:19:17;14;13;9
73305;PMS5003;61530;51.158;0.880;2022-09-13T06:20:17;14;12;8
73305;PMS5003;61530;51.158;0.880;2022-09-13T06:21:19;14;14;9
73305;PMS5003;61530;51.158;0.880;2022-09-13T06:22:18;14;14;8
73305;PMS5003;61530;51.158;0.880;2022-09-13T06:23:18;14;14;10
73305;PMS5003;61530;51.158;0.880;2022-09-13T06:24:24;14;14;9
73305;PMS5003;61530;51.158;0.880;2022-09-13T06:25:30;17;15;10
73305;PMS5003;61530;51.158;0.880;2022-09-13T06:26:30;15;15;11
73305;PMS5003;61530;51.158;0.880;2022-09-13T06:27:36;17;14;9
73305;PMS5003;61530;51.158;0.880;2022-09-13T06:28:45;13;13;9
73305;PMS5003;61530;51.158;0.880;2022-09-13T06:29:48;12;12;8
73305;PMS5003;61530;51.158;0.880;2022-09-13T06:30:48;15;13;9
73305;PMS5003;61530;51.158;0.880;2022-09-13T06:31:54;12;12;8
73305;PMS5003;61530;51.158;0.880;2022-09-13T06:33:00;14;14;9
73305;PMS5003;61530;51.158;0.880;2022-09-13T06:34:06;12;11;7
73305;PMS5003;61530;51.158;0.880;2022-09-13T06:35:12;16;14;10
73305;PMS5003;61530;51.158;0.880;2022-09-13T06:36:13;14;14;9
73305;PMS5003;61530;51.158;0.880;2022-09-13T06:37:12;14;14;8
73305;PMS5003;61530;51.158;0.880;2022-09-13T06:38:18;15;14;9
73305;PMS5003;61530;51.158;0.880;2022-09-13T06:39:24;13;13;9
73305;PMS5003;61530;51.158;0.880;2022-09-13T06:40:24;18;17;9
73305;PMS5003;61530;51.158;0.880;2022-09-13T06:41:30;16;14;10
73305;PMS5003;61530;51.158;0.880;2022-09-13T06:42:32;12;12;9
73305;PMS5003;61530;51.158;0.880;2022-09-13T06:43:36;15;13;10
73305;PMS5003;61530;51.158;0.880;2022-09-13T06:44:42;12;11;7
73305;PMS5003;61530;51.158;0.880;2022-09-13T06:45:48;15;15;8
73305;PMS5003;61530;51.158;0.880;2022-09-13T06:46:48;12;11;8
73305;PMS5003;61530;51.158;0.880;2022-09-13T06:47:54;13;12;7
73305;PMS5003;61530;51.158;0.880;2022-09-13T06:48:54;14;13;9
73305;PMS5003;61530;51.158;0.880;2022-09-13T06:49:54;11;11;8
73305;PMS5003;61530;51.158;0.880;2022-09-13T06:51:00;15;12;9
73305;PMS5003;61530;51.158;0.880;2022-09-13T06:52:00;14;13;8
73305;PMS5003;61530;51.158;0.880;2022-09-13T06:53:06;11;11;8
73305;PMS5003;61530;51.158;0.880;2022-09-13T06:54:12;16;16;8
73305;PMS5003;61530;51.158;0.880;2022-09-13T06:55:12;14;14;9
73305;PMS5003;61530;51.158;0.880;2022-09-13T06:56:14;11;11;8
73305;PMS5003;61530;51.158;0.880;2022-09-13T06:57:12;12;12;9
73305;PMS5003;61530;51.158;0.880;2022-09-13T06:58:18;15;14;9
73305;PMS5003;61530;51.158;0.880;2022-09-13T06:59:18;13;12;9
73305;PMS5003;61530;51.158;0.880;2022-09-13T07:00:24;14;12;8